Airport View

Enter ICAO identifier to see the current METAR for that AWOS.

KFNL for example

KGFA 022256Z AUTO 26013G21KT 10SM CLR 25/02 A2973 RMK AO2 SLP057 T02450019

2 Sep 2014 23:38

Other Area AWOS: KGTF - K79S - KHLN - KLWT

TAF AMD KGFA 0220/0401 24015KT 9999 BKN150 QNH2971INS TEMPO 0220/0223 26015G22KT 510009 BECMG 0302/0303 23009KT 9999 FEW070 BKN150 QNH2968INS BECMG 0315/0316 29015G25KT 9999 BKN070 510009 QNH2966INS TX25/0300Z TN08/0312Z AMD 022025